Time;durP1;ratioP1;P1;durP2;ratioP2;P2;SDS_P1;SDS_P2;PMS_P1;PMS_P2;Temp;Humidity;BMP_temperature;BMP_pressure;BME280_temperature;BME280_humidity;BME280_pressure;Samples;Min_cycle;Max_cycle;Signal;HPM_P1;HPM_P2
2022/02/26 00:02:18;;;;;;;21.00;8.90;;;;;;;;;;5010901;28;20231;-78
2022/02/26 00:04:46;;;;;;;18.40;9.90;;;;;;;;;;5009710;28;20196;-78
2022/02/26 00:07:13;;;;;;;15.37;7.37;;;;;;;;;;5010311;28;20238;-77
2022/02/26 00:09:41;;;;;;;18.57;7.33;;;;;;;;;;5014088;28;20203;-78
2022/02/26 00:12:08;;;;;;;18.17;8.27;;;;;;;;;;4999710;28;20582;-78
2022/02/26 00:14:35;;;;;;;23.40;12.27;;;;;;;;;;5013750;28;20287;-78
2022/02/26 00:17:03;;;;;;;23.20;12.80;;;;;;;;;;5007978;28;20303;-78
2022/02/26 00:19:33;;;;;;;23.50;12.30;;;;;;;;;;5000831;28;20237;-78
2022/02/26 00:22:00;;;;;;;23.60;13.67;;;;;;;;;;5013367;28;20190;-78
2022/02/26 00:24:27;;;;;;;27.43;13.23;;;;;;;;;;4999752;28;20230;-78
2022/02/26 00:26:54;;;;;;;22.63;13.13;;;;;;;;;;5012776;28;20607;-78
2022/02/26 00:29:22;;;;;;;23.30;12.00;;;;;;;;;;5009630;28;20235;-78
2022/02/26 00:31:49;;;;;;;22.87;10.27;;;;;;;;;;5014847;28;20323;-78
2022/02/26 00:34:16;;;;;;;18.97;9.70;;;;;;;;;;5012186;28;20212;-78
2022/02/26 00:36:45;;;;;;;23.40;9.00;;;;;;;;;;5007590;28;20614;-78
2022/02/26 00:39:12;;;;;;;23.27;9.03;;;;;;;;;;4995569;28;20209;-78
2022/02/26 00:41:39;;;;;;;20.97;8.03;;;;;;;;;;5009660;28;20232;-78
2022/02/26 00:44:06;;;;;;;16.33;7.53;;;;;;;;;;5012572;28;20746;-78
2022/02/26 00:46:33;;;;;;;19.67;8.00;;;;;;;;;;4995549;28;20295;-78
2022/02/26 00:51:47;;;;;;;16.00;8.73;;;;;;;;;;4995429;28;20226;-78
2022/02/26 00:54:14;;;;;;;20.43;9.13;;;;;;;;;;5005668;28;20295;-78
2022/02/26 00:56:42;;;;;;;19.43;9.07;;;;;;;;;;5013964;28;20669;-78
2022/02/26 00:59:09;;;;;;;21.93;8.47;;;;;;;;;;5011942;28;20775;-78
2022/02/26 01:01:37;;;;;;;23.37;8.90;;;;;;;;;;5006254;28;20282;-77
2022/02/26 01:04:04;;;;;;;24.07;8.57;;;;;;;;;;5003340;28;20307;-78
2022/02/26 01:06:31;;;;;;;21.07;7.80;;;;;;;;;;5006708;28;20208;-78
2022/02/26 01:09:00;;;;;;;18.07;7.83;;;;;;;;;;5004105;28;20307;-78
2022/02/26 01:11:27;;;;;;;19.43;7.93;;;;;;;;;;5007753;28;20227;-78
2022/02/26 01:13:54;;;;;;;21.57;8.80;;;;;;;;;;5012797;28;20233;-78
2022/02/26 01:16:21;;;;;;;17.13;7.93;;;;;;;;;;5013780;28;20234;-78
2022/02/26 01:18:49;;;;;;;16.47;7.73;;;;;;;;;;5007066;28;20743;-78
2022/02/26 01:21:16;;;;;;;16.50;7.83;;;;;;;;;;4999814;28;20578;-78
2022/02/26 01:23:43;;;;;;;19.43;7.93;;;;;;;;;;4994250;28;20234;-78
2022/02/26 01:26:12;;;;;;;16.97;7.60;;;;;;;;;;5002396;28;20233;-78
2022/02/26 01:28:39;;;;;;;18.10;7.43;;;;;;;;;;5003024;28;20228;-78
2022/02/26 01:31:06;;;;;;;18.40;7.90;;;;;;;;;;5012505;28;20311;-78
2022/02/26 01:33:33;;;;;;;19.30;7.70;;;;;;;;;;5012484;28;20297;-78
2022/02/26 01:36:01;;;;;;;24.13;8.23;;;;;;;;;;5002188;28;20231;-78
2022/02/26 01:38:28;;;;;;;20.80;7.53;;;;;;;;;;4995401;28;20204;-78
2022/02/26 01:40:55;;;;;;;20.40;8.60;;;;;;;;;;4999339;28;20202;-77
2022/02/26 01:43:24;;;;;;;19.20;8.70;;;;;;;;;;5009615;28;20209;-78
2022/02/26 01:45:52;;;;;;;19.83;9.10;;;;;;;;;;5005384;28;20212;-78
2022/02/26 01:48:19;;;;;;;17.17;7.80;;;;;;;;;;5013918;28;20197;-78
2022/02/26 01:50:47;;;;;;;15.77;8.00;;;;;;;;;;4995996;28;20783;-78
2022/02/26 01:53:15;;;;;;;17.17;7.53;;;;;;;;;;5006710;28;20284;-77
2022/02/26 01:55:42;;;;;;;18.33;7.27;;;;;;;;;;5012869;28;20226;-78
2022/02/26 01:58:09;;;;;;;20.93;7.60;;;;;;;;;;5010829;28;20269;-78
2022/02/26 02:00:38;;;;;;;20.60;7.93;;;;;;;;;;5001446;28;20276;-78
2022/02/26 02:03:05;;;;;;;17.63;7.90;;;;;;;;;;5011741;28;20299;-78
2022/02/26 02:05:33;;;;;;;18.73;7.60;;;;;;;;;;5005884;28;20286;-79
2022/02/26 02:08:00;;;;;;;23.87;6.73;;;;;;;;;;5007066;28;20253;-78
2022/02/26 02:10:28;;;;;;;22.13;7.83;;;;;;;;;;5000324;28;20212;-78
2022/02/26 02:12:55;;;;;;;18.33;7.77;;;;;;;;;;5000561;28;20233;-78
2022/02/26 02:15:32;;;;;;;18.03;8.20;;;;;;;;;;4999302;28;20290;-78
2022/02/26 02:18:00;;;;;;;21.07;8.10;;;;;;;;;;5013369;28;20240;-78
2022/02/26 02:20:28;;;;;;;20.60;7.47;;;;;;;;;;5011489;28;20290;-78
2022/02/26 02:22:56;;;;;;;17.47;7.90;;;;;;;;;;5013168;28;20231;-78
2022/02/26 02:25:27;;;;;;;16.47;8.10;;;;;;;;;;4995777;28;20251;-78
2022/02/26 02:27:55;;;;;;;18.50;7.90;;;;;;;;;;4994501;28;20210;-78
2022/02/26 02:30:22;;;;;;;17.70;7.37;;;;;;;;;;5001842;28;20200;-78
2022/02/26 02:32:49;;;;;;;18.57;7.13;;;;;;;;;;5011320;28;20235;-78
2022/02/26 02:35:27;;;;;;;21.63;7.23;;;;;;;;;;5002333;28;20680;-78
2022/02/26 02:37:55;;;;;;;18.77;7.07;;;;;;;;;;5001157;28;20760;-78
2022/02/26 02:40:24;;;;;;;14.20;7.00;;;;;;;;;;5001874;28;20206;-78
2022/02/26 02:42:51;;;;;;;14.67;6.93;;;;;;;;;;5007542;28;20673;-78
2022/02/26 02:45:19;;;;;;;18.47;9.03;;;;;;;;;;5009737;28;20650;-78
2022/02/26 02:47:46;;;;;;;21.93;10.93;;;;;;;;;;4997631;28;20206;-78
2022/02/26 02:50:15;;;;;;;21.50;10.90;;;;;;;;;;5006550;28;20234;-78
2022/02/26 02:52:42;;;;;;;21.43;12.13;;;;;;;;;;5010968;28;20223;-78
2022/02/26 02:55:10;;;;;;;21.57;12.23;;;;;;;;;;5009552;28;20228;-78
2022/02/26 02:57:39;;;;;;;21.30;11.90;;;;;;;;;;5003615;28;20232;-78
2022/02/26 03:00:07;;;;;;;21.43;9.37;;;;;;;;;;5004763;28;20260;-78
2022/02/26 03:02:34;;;;;;;21.60;9.93;;;;;;;;;;5012087;28;20287;-78
2022/02/26 03:05:01;;;;;;;19.57;9.57;;;;;;;;;;5012208;28;20253;-78
2022/02/26 03:07:28;;;;;;;24.90;8.03;;;;;;;;;;5012749;28;20284;-78
2022/02/26 03:09:55;;;;;;;24.20;11.63;;;;;;;;;;5003083;28;20227;-78
2022/02/26 03:12:23;;;;;;;24.20;10.33;;;;;;;;;;5000254;28;20224;-78
2022/02/26 03:14:51;;;;;;;16.40;6.80;;;;;;;;;;4999019;28;20281;-78
2022/02/26 03:17:18;;;;;;;21.57;6.63;;;;;;;;;;5006250;28;20201;-78
2022/02/26 03:19:49;;;;;;;23.27;11.33;;;;;;;;;;5010747;28;20198;-78
2022/02/26 03:22:16;;;;;;;23.13;12.27;;;;;;;;;;4998496;28;20197;-78
2022/02/26 03:24:43;;;;;;;39.77;21.77;;;;;;;;;;4992076;28;20232;-78
2022/02/26 03:27:10;;;;;;;23.57;11.70;;;;;;;;;;4993477;28;20201;-78
2022/02/26 03:29:38;;;;;;;27.20;9.37;;;;;;;;;;4992805;28;20215;-78
2022/02/26 03:32:07;;;;;;;21.57;7.50;;;;;;;;;;4992306;28;20263;-78
2022/02/26 03:34:35;;;;;;;26.87;9.60;;;;;;;;;;4996564;28;20297;-78
2022/02/26 03:37:02;;;;;;;21.50;11.13;;;;;;;;;;5002707;28;20198;-78
2022/02/26 03:39:31;;;;;;;20.57;9.60;;;;;;;;;;4998071;28;20237;-78
2022/02/26 03:41:59;;;;;;;20.23;8.70;;;;;;;;;;5008521;28;20199;-78
2022/02/26 03:44:26;;;;;;;35.37;17.20;;;;;;;;;;4993157;28;20241;-78
2022/02/26 03:46:53;;;;;;;27.53;12.07;;;;;;;;;;5011955;28;20721;-78
2022/02/26 03:49:22;;;;;;;24.50;10.37;;;;;;;;;;5009862;28;20245;-78
2022/02/26 03:51:49;;;;;;;18.17;8.90;;;;;;;;;;4995648;28;20610;-78
2022/02/26 03:54:16;;;;;;;22.10;7.27;;;;;;;;;;4997260;28;20261;-78
2022/02/26 03:56:44;;;;;;;24.00;8.03;;;;;;;;;;5011668;28;20273;-78
2022/02/26 03:59:11;;;;;;;23.37;7.33;;;;;;;;;;5001227;28;20314;-78
2022/02/26 04:01:38;;;;;;;23.87;5.67;;;;;;;;;;4997271;28;20238;-78
2022/02/26 04:04:06;;;;;;;18.30;5.17;;;;;;;;;;5006182;28;20241;-78
2022/02/26 04:06:34;;;;;;;20.07;5.53;;;;;;;;;;5009046;28;20290;-78
2022/02/26 04:09:02;;;;;;;27.47;6.37;;;;;;;;;;5009908;28;20234;-78
2022/02/26 04:11:30;;;;;;;22.90;5.20;;;;;;;;;;5008851;28;20657;-78
2022/02/26 04:13:57;;;;;;;16.23;4.60;;;;;;;;;;4992380;28;20205;-78
2022/02/26 04:16:24;;;;;;;19.33;4.63;;;;;;;;;;5006947;28;20209;-78
2022/02/26 04:18:51;;;;;;;18.90;4.63;;;;;;;;;;5005810;28;20201;-78
2022/02/26 04:21:19;;;;;;;13.93;4.30;;;;;;;;;;5010531;28;20275;-78
2022/02/26 04:23:47;;;;;;;23.10;5.03;;;;;;;;;;5008330;28;20303;-78
2022/02/26 04:26:14;;;;;;;20.43;4.37;;;;;;;;;;4999718;28;20248;-78
2022/02/26 04:28:42;;;;;;;16.67;4.20;;;;;;;;;;4994744;28;20206;-78
2022/02/26 04:31:09;;;;;;;19.70;4.10;;;;;;;;;;5002117;28;20228;-78
2022/02/26 04:33:36;;;;;;;20.87;4.23;;;;;;;;;;5010735;28;20236;-78
2022/02/26 04:36:03;;;;;;;17.57;4.57;;;;;;;;;;5009269;28;20654;-78
2022/02/26 04:38:31;;;;;;;18.67;3.80;;;;;;;;;;5011538;28;20235;-78
2022/02/26 04:41:00;;;;;;;24.30;4.23;;;;;;;;;;5011070;28;20291;-78
2022/02/26 04:43:28;;;;;;;23.80;4.23;;;;;;;;;;4993845;28;20674;-78
2022/02/26 04:45:55;;;;;;;17.50;3.83;;;;;;;;;;5010191;28;20645;-78
2022/02/26 04:48:23;;;;;;;22.37;3.73;;;;;;;;;;5003808;28;20209;-78
2022/02/26 04:50:50;;;;;;;17.20;4.00;;;;;;;;;;4991727;28;20315;-78
2022/02/26 04:53:17;;;;;;;26.00;4.10;;;;;;;;;;4994479;28;20306;-78
2022/02/26 04:55:44;;;;;;;15.57;3.23;;;;;;;;;;5009746;28;20291;-78
2022/02/26 04:58:13;;;;;;;12.77;3.33;;;;;;;;;;5014495;28;20275;-78
2022/02/26 05:00:41;;;;;;;11.23;3.33;;;;;;;;;;5013930;28;20307;-78
2022/02/26 05:03:09;;;;;;;18.80;3.77;;;;;;;;;;5014656;28;20279;-78
2022/02/26 05:05:36;;;;;;;16.20;3.43;;;;;;;;;;5002488;28;20580;-78
2022/02/26 05:08:03;;;;;;;15.43;3.70;;;;;;;;;;5014846;28;20234;-78
2022/02/26 05:10:30;;;;;;;17.03;3.57;;;;;;;;;;5010878;28;20657;-78
2022/02/26 05:12:57;;;;;;;15.03;3.37;;;;;;;;;;5012720;28;20228;-78
2022/02/26 05:15:26;;;;;;;20.93;3.33;;;;;;;;;;5009093;28;20259;-78
2022/02/26 05:17:53;;;;;;;16.03;3.13;;;;;;;;;;5006786;28;20281;-78
2022/02/26 05:20:22;;;;;;;17.97;3.73;;;;;;;;;;5000657;28;20243;-78
2022/02/26 05:22:49;;;;;;;16.67;3.37;;;;;;;;;;5013492;28;20255;-78
2022/02/26 05:25:16;;;;;;;16.70;3.47;;;;;;;;;;5003622;28;20237;-78
2022/02/26 05:27:44;;;;;;;22.90;3.53;;;;;;;;;;4995589;28;20230;-78
2022/02/26 05:30:12;;;;;;;15.47;3.20;;;;;;;;;;5003419;28;20280;-78
2022/02/26 05:32:41;;;;;;;19.23;3.47;;;;;;;;;;4994918;28;20310;-78
2022/02/26 05:35:08;;;;;;;15.80;3.50;;;;;;;;;;5003052;28;20205;-78
2022/02/26 05:37:36;;;;;;;17.93;3.33;;;;;;;;;;5014388;28;20233;-77
2022/02/26 05:40:03;;;;;;;14.90;3.43;;;;;;;;;;5009943;28;20201;-77
2022/02/26 05:42:30;;;;;;;17.33;3.53;;;;;;;;;;5013792;28;20691;-77
2022/02/26 05:44:58;;;;;;;13.93;3.20;;;;;;;;;;5011924;28;20255;-77
2022/02/26 05:47:25;;;;;;;14.93;3.10;;;;;;;;;;5008947;28;20628;-77
2022/02/26 05:49:54;;;;;;;14.37;3.10;;;;;;;;;;5013266;28;20964;-78
2022/02/26 05:52:21;;;;;;;13.50;3.00;;;;;;;;;;5014103;28;20315;-78
2022/02/26 05:54:48;;;;;;;18.20;3.87;;;;;;;;;;4995628;28;20228;-77
2022/02/26 05:57:15;;;;;;;16.87;3.20;;;;;;;;;;5004553;28;20217;-77
2022/02/26 05:59:44;;;;;;;15.57;3.30;;;;;;;;;;5000088;28;20241;-78
2022/02/26 06:02:11;;;;;;;17.27;3.30;;;;;;;;;;4995418;28;20233;-77
2022/02/26 06:04:39;;;;;;;14.73;3.33;;;;;;;;;;5013132;28;20983;-77
2022/02/26 06:07:07;;;;;;;19.00;3.90;;;;;;;;;;5011165;28;20573;-77
2022/02/26 06:09:34;;;;;;;18.80;3.20;;;;;;;;;;5012075;28;20235;-77
2022/02/26 06:12:02;;;;;;;11.67;3.23;;;;;;;;;;5007334;28;20308;-77
2022/02/26 06:14:30;;;;;;;18.97;3.87;;;;;;;;;;5011254;28;20510;-77
2022/02/26 06:16:58;;;;;;;17.73;3.20;;;;;;;;;;5004637;28;20250;-77
2022/02/26 06:19:25;;;;;;;15.53;3.67;;;;;;;;;;4997186;28;20286;-77
2022/02/26 06:21:52;;;;;;;15.23;3.20;;;;;;;;;;5002920;28;20710;-77
2022/02/26 06:24:20;;;;;;;12.53;3.20;;;;;;;;;;5001249;28;20299;-77
2022/02/26 06:26:48;;;;;;;20.23;3.20;;;;;;;;;;5011005;28;20235;-77
2022/02/26 06:29:15;;;;;;;15.53;3.20;;;;;;;;;;5003148;28;20555;-77
2022/02/26 06:31:42;;;;;;;18.10;3.27;;;;;;;;;;5001295;28;20288;-77
2022/02/26 06:34:09;;;;;;;11.17;3.23;;;;;;;;;;4994806;28;20240;-77
2022/02/26 06:36:38;;;;;;;17.83;3.50;;;;;;;;;;5011620;28;20240;-77
2022/02/26 06:39:06;;;;;;;11.77;3.17;;;;;;;;;;5011515;28;20204;-77
2022/02/26 06:41:34;;;;;;;15.27;2.83;;;;;;;;;;5012210;28;20634;-78
2022/02/26 06:44:01;;;;;;;16.07;3.10;;;;;;;;;;5011626;28;20292;-77
2022/02/26 06:46:29;;;;;;;15.30;3.67;;;;;;;;;;4995805;28;20198;-77
2022/02/26 06:48:56;;;;;;;15.67;3.50;;;;;;;;;;5009224;28;20651;-77
2022/02/26 06:51:23;;;;;;;15.83;3.33;;;;;;;;;;5010261;28;20644;-79
2022/02/26 06:53:50;;;;;;;12.93;3.30;;;;;;;;;;4996160;28;20256;-77
2022/02/26 06:56:18;;;;;;;11.30;3.50;;;;;;;;;;5009609;28;20684;-77
2022/02/26 06:58:46;;;;;;;20.10;3.57;;;;;;;;;;5008305;28;20670;-78
2022/02/26 07:01:13;;;;;;;14.90;3.63;;;;;;;;;;4999914;28;20276;-77
2022/02/26 07:03:40;;;;;;;12.20;3.23;;;;;;;;;;5008375;28;20280;-78
2022/02/26 07:06:08;;;;;;;19.70;3.60;;;;;;;;;;5000811;28;20295;-77
2022/02/26 07:08:35;;;;;;;14.10;3.80;;;;;;;;;;5001750;28;20233;-77
2022/02/26 07:11:02;;;;;;;17.07;3.63;;;;;;;;;;5005252;28;20638;-78
2022/02/26 07:13:29;;;;;;;12.00;3.43;;;;;;;;;;5004368;28;20307;-78
2022/02/26 07:15:59;;;;;;;13.40;3.50;;;;;;;;;;5006913;28;20798;-77
2022/02/26 07:18:26;;;;;;;13.40;3.57;;;;;;;;;;5011984;28;20205;-77
2022/02/26 07:20:53;;;;;;;10.67;3.07;;;;;;;;;;5006737;28;20224;-77
2022/02/26 07:23:20;;;;;;;12.97;3.57;;;;;;;;;;5006597;28;20194;-78
2022/02/26 07:25:47;;;;;;;18.03;3.60;;;;;;;;;;5006654;28;20662;-78
2022/02/26 07:28:15;;;;;;;16.47;3.10;;;;;;;;;;5003549;28;20648;-77
2022/02/26 07:30:42;;;;;;;11.17;3.17;;;;;;;;;;5002628;28;20629;-78
2022/02/26 07:33:11;;;;;;;17.27;3.73;;;;;;;;;;5004231;28;20715;-77
2022/02/26 07:35:38;;;;;;;15.00;3.70;;;;;;;;;;4998656;28;20274;-77
2022/02/26 07:38:06;;;;;;;16.57;3.40;;;;;;;;;;5005655;28;20198;-77
2022/02/26 07:40:33;;;;;;;11.70;3.73;;;;;;;;;;5002356;28;20244;-77
2022/02/26 07:43:00;;;;;;;12.00;3.20;;;;;;;;;;5009190;28;20228;-77
2022/02/26 07:45:28;;;;;;;11.73;3.17;;;;;;;;;;5009469;28;20241;-77
2022/02/26 07:47:55;;;;;;;12.30;3.20;;;;;;;;;;5003483;28;20232;-77
2022/02/26 07:50:23;;;;;;;13.80;3.53;;;;;;;;;;5004638;28;20215;-77
2022/02/26 07:52:50;;;;;;;10.73;2.90;;;;;;;;;;4994826;28;20663;-77
2022/02/26 07:55:18;;;;;;;8.83;2.80;;;;;;;;;;5003578;28;20347;-77
2022/02/26 07:57:45;;;;;;;10.23;3.20;;;;;;;;;;5004617;28;20630;-77
2022/02/26 08:00:13;;;;;;;12.00;3.13;;;;;;;;;;5001456;28;20306;-77
2022/02/26 08:02:40;;;;;;;10.57;2.80;;;;;;;;;;4998896;28;20228;-77
2022/02/26 08:05:07;;;;;;;10.83;3.20;;;;;;;;;;5002758;28;20288;-77
2022/02/26 08:07:51;;;;;;;13.57;3.40;;;;;;;;;;5006029;28;20240;-76
2022/02/26 08:10:20;;;;;;;9.30;3.17;;;;;;;;;;4999798;28;20263;-76
2022/02/26 08:12:47;;;;;;;10.73;2.87;;;;;;;;;;5004267;28;20308;-76
2022/02/26 08:15:14;;;;;;;9.90;2.90;;;;;;;;;;5007010;28;20234;-76
2022/02/26 08:17:43;;;;;;;6.70;2.90;;;;;;;;;;5003132;28;20714;-77
2022/02/26 08:20:11;;;;;;;9.03;3.10;;;;;;;;;;4996968;28;20692;-76
2022/02/26 08:22:38;;;;;;;11.00;3.47;;;;;;;;;;4998285;28;20252;-76
2022/02/26 08:25:08;;;;;;;10.07;3.47;;;;;;;;;;4999511;28;20280;-76
2022/02/26 08:27:35;;;;;;;9.67;3.13;;;;;;;;;;5003796;28;20850;-76
2022/02/26 08:30:02;;;;;;;10.07;3.13;;;;;;;;;;5004293;28;20280;-78
2022/02/26 08:32:29;;;;;;;11.43;3.37;;;;;;;;;;4998854;28;20256;-78
2022/02/26 08:34:57;;;;;;;8.87;2.57;;;;;;;;;;5003336;28;20216;-76
2022/02/26 08:37:24;;;;;;;6.87;3.00;;;;;;;;;;4996147;28;20281;-76
2022/02/26 08:39:51;;;;;;;8.60;2.80;;;;;;;;;;4994586;28;20205;-76
2022/02/26 08:42:21;;;;;;;8.87;2.90;;;;;;;;;;5000495;28;20293;-76
2022/02/26 08:44:48;;;;;;;10.70;2.67;;;;;;;;;;4996141;28;20240;-76
2022/02/26 08:47:15;;;;;;;10.23;3.37;;;;;;;;;;5013856;28;20283;-77
2022/02/26 08:49:43;;;;;;;11.43;3.13;;;;;;;;;;5014990;28;20641;-76
2022/02/26 08:52:10;;;;;;;9.07;2.93;;;;;;;;;;5000699;28;20293;-76
2022/02/26 08:54:37;;;;;;;9.77;2.83;;;;;;;;;;5003961;28;20252;-76
2022/02/26 08:57:04;;;;;;;9.03;2.87;;;;;;;;;;4999512;28;20347;-76
2022/02/26 08:59:34;;;;;;;7.80;2.87;;;;;;;;;;5006251;28;20256;-76
2022/02/26 09:02:01;;;;;;;10.27;3.20;;;;;;;;;;5001173;28;20297;-76
2022/02/26 09:04:28;;;;;;;8.27;2.83;;;;;;;;;;5007550;28;20237;-76
2022/02/26 09:06:55;;;;;;;7.83;3.23;;;;;;;;;;5014113;28;20247;-77
2022/02/26 09:09:23;;;;;;;9.43;3.20;;;;;;;;;;5013596;28;20213;-76
2022/02/26 09:11:50;;;;;;;7.20;2.53;;;;;;;;;;5001430;28;20289;-77
2022/02/26 09:14:17;;;;;;;8.33;3.00;;;;;;;;;;5013944;28;20308;-77
2022/02/26 09:16:46;;;;;;;9.27;3.00;;;;;;;;;;5004611;28;20236;-76
2022/02/26 09:19:13;;;;;;;7.57;2.90;;;;;;;;;;5013832;28;20201;-76
2022/02/26 09:21:40;;;;;;;9.33;2.80;;;;;;;;;;4999123;28;20200;-76
2022/02/26 09:24:08;;;;;;;6.20;2.60;;;;;;;;;;4994497;28;20708;-76
2022/02/26 09:26:35;;;;;;;8.13;2.63;;;;;;;;;;4995415;28;20210;-77
2022/02/26 09:29:02;;;;;;;5.73;2.00;;;;;;;;;;5008579;28;20714;-76
2022/02/26 09:31:30;;;;;;;10.27;3.07;;;;;;;;;;4997347;28;20240;-76
2022/02/26 09:33:58;;;;;;;7.30;2.70;;;;;;;;;;4994123;28;20308;-76
2022/02/26 09:36:25;;;;;;;8.80;2.80;;;;;;;;;;4999168;28;20683;-76
2022/02/26 09:38:52;;;;;;;10.43;2.80;;;;;;;;;;5007250;28;20285;-76
2022/02/26 09:41:20;;;;;;;9.00;2.53;;;;;;;;;;4993813;28;20237;-76
2022/02/26 09:43:47;;;;;;;9.30;2.70;;;;;;;;;;4994296;28;20276;-76
2022/02/26 09:46:14;;;;;;;9.97;2.87;;;;;;;;;;4993647;28;20296;-76
2022/02/26 09:48:41;;;;;;;9.10;3.10;;;;;;;;;;4994247;28;20634;-77
2022/02/26 09:51:10;;;;;;;8.33;2.73;;;;;;;;;;5003238;28;20229;-76
2022/02/26 09:53:38;;;;;;;8.63;2.90;;;;;;;;;;5013371;28;20300;-77
2022/02/26 09:56:05;;;;;;;9.43;2.80;;;;;;;;;;4998332;28;20256;-76
2022/02/26 09:58:32;;;;;;;10.57;2.60;;;;;;;;;;5010332;28;20263;-76
2022/02/26 10:00:59;;;;;;;8.60;2.73;;;;;;;;;;5013480;28;20240;-76
2022/02/26 10:03:28;;;;;;;5.83;2.40;;;;;;;;;;5013464;28;20264;-76
2022/02/26 10:06:13;;;;;;;6.87;2.70;;;;;;;;;;5002108;28;20285;-76
2022/02/26 10:08:44;;;;;;;7.57;2.93;;;;;;;;;;4997074;28;20201;-76
2022/02/26 10:11:22;;;;;;;8.07;2.63;;;;;;;;;;5001553;28;20201;-76
2022/02/26 10:13:50;;;;;;;11.60;2.80;;;;;;;;;;4998655;28;20240;-76
2022/02/26 10:16:17;;;;;;;9.40;2.70;;;;;;;;;;5008105;28;20284;-76
2022/02/26 10:18:52;;;;;;;6.87;2.73;;;;;;;;;;5012638;28;20193;-76
2022/02/26 10:21:29;;;;;;;8.50;2.73;;;;;;;;;;5012247;28;20216;-76
2022/02/26 10:23:57;;;;;;;10.57;3.70;;;;;;;;;;5010074;28;20221;-76
2022/02/26 10:26:26;;;;;;;10.67;4.97;;;;;;;;;;5012364;28;20941;-76
2022/02/26 10:28:53;;;;;;;8.67;3.60;;;;;;;;;;5002672;28;20206;-76
2022/02/26 10:31:20;;;;;;;7.37;2.80;;;;;;;;;;5006460;28;20233;-77
2022/02/26 10:33:47;;;;;;;8.07;2.90;;;;;;;;;;4997526;28;20677;-77
2022/02/26 10:36:14;;;;;;;8.73;3.57;;;;;;;;;;5005881;28;20651;-76
2022/02/26 10:38:41;;;;;;;8.63;3.67;;;;;;;;;;5008238;28;20239;-76
2022/02/26 10:41:13;;;;;;;9.90;2.80;;;;;;;;;;5000988;28;20206;-76
2022/02/26 10:43:41;;;;;;;7.53;2.57;;;;;;;;;;5009489;28;20280;-76
2022/02/26 10:46:30;;;;;;;8.13;2.60;;;;;;;;;;5006553;28;20259;-76
2022/02/26 10:48:58;;;;;;;8.97;3.23;;;;;;;;;;4996891;28;20260;-76
2022/02/26 10:51:26;;;;;;;9.27;2.77;;;;;;;;;;4999007;28;20204;-77
2022/02/26 10:53:53;;;;;;;6.33;2.23;;;;;;;;;;5002311;28;20767;-77
2022/02/26 10:56:30;;;;;;;9.60;3.20;;;;;;;;;;5002320;28;20626;-76
2022/02/26 10:58:57;;;;;;;6.93;2.33;;;;;;;;;;5008239;28;20232;-77
2022/02/26 11:01:24;;;;;;;7.60;2.17;;;;;;;;;;4998043;28;20228;-76
2022/02/26 11:03:54;;;;;;;6.40;2.50;;;;;;;;;;5011193;28;20232;-76
2022/02/26 11:06:22;;;;;;;7.23;2.30;;;;;;;;;;5001312;28;20241;-77
2022/02/26 11:08:51;;;;;;;8.77;2.07;;;;;;;;;;5000971;28;20210;-76
2022/02/26 11:11:19;;;;;;;7.90;2.33;;;;;;;;;;5000933;28;20744;-76
2022/02/26 11:13:50;;;;;;;6.57;2.30;;;;;;;;;;5000417;28;20249;-78
2022/02/26 11:16:19;;;;;;;9.10;3.00;;;;;;;;;;5005873;28;20716;-76
2022/02/26 11:18:47;;;;;;;8.57;3.30;;;;;;;;;;4998320;28;20280;-76
2022/02/26 11:21:17;;;;;;;8.03;2.70;;;;;;;;;;5002295;28;20574;-77
2022/02/26 11:23:45;;;;;;;10.30;3.80;;;;;;;;;;5005810;28;20220;-77
2022/02/26 11:26:13;;;;;;;7.90;3.00;;;;;;;;;;4995129;28;20285;-76
2022/02/26 11:28:42;;;;;;;6.70;2.10;;;;;;;;;;5001058;28;20201;-77
2022/02/26 11:31:11;;;;;;;8.47;2.20;;;;;;;;;;5007018;28;20200;-76
2022/02/26 11:33:38;;;;;;;9.37;2.33;;;;;;;;;;5002419;28;20254;-76
2022/02/26 11:36:06;;;;;;;6.07;2.00;;;;;;;;;;5007757;28;20676;-76
2022/02/26 11:38:36;;;;;;;8.43;2.30;;;;;;;;;;4995370;28;20561;-76
2022/02/26 11:41:17;;;;;;;5.87;2.30;;;;;;;;;;5005569;28;20300;-76
2022/02/26 11:43:46;;;;;;;7.13;2.60;;;;;;;;;;5000390;28;20220;-76
2022/02/26 11:46:28;;;;;;;7.83;2.37;;;;;;;;;;5011206;28;20232;-76
2022/02/26 11:48:58;;;;;;;5.30;2.13;;;;;;;;;;4992582;28;20198;-76
2022/02/26 11:51:32;;;;;;;8.53;2.93;;;;;;;;;;5011192;28;20229;-76
2022/02/26 11:53:59;;;;;;;6.47;2.10;;;;;;;;;;4999005;28;20261;-76
2022/02/26 11:56:39;;;;;;;9.37;2.50;;;;;;;;;;5008513;28;20255;-76
2022/02/26 11:59:07;;;;;;;4.40;2.10;;;;;;;;;;5004626;28;20233;-76
2022/02/26 12:01:34;;;;;;;4.63;1.87;;;;;;;;;;5011101;28;20209;-77
2022/02/26 12:04:03;;;;;;;4.50;2.10;;;;;;;;;;5006488;28;20669;-76
2022/02/26 12:06:32;;;;;;;6.10;1.83;;;;;;;;;;5006422;28;20232;-76
2022/02/26 12:09:03;;;;;;;4.70;1.60;;;;;;;;;;5002587;28;20200;-76
2022/02/26 12:11:38;;;;;;;5.93;1.57;;;;;;;;;;5008307;28;20197;-77
2022/02/26 12:14:06;;;;;;;5.97;2.23;;;;;;;;;;5002858;28;20278;-76
2022/02/26 12:16:36;;;;;;;5.47;2.00;;;;;;;;;;5007103;28;20201;-76
2022/02/26 12:19:05;;;;;;;6.83;2.20;;;;;;;;;;5014455;28;20203;-76
2022/02/26 12:21:34;;;;;;;6.20;2.40;;;;;;;;;;5008679;28;20205;-77
2022/02/26 12:24:09;;;;;;;4.63;1.93;;;;;;;;;;4997879;28;20731;-76
2022/02/26 12:26:46;;;;;;;8.10;2.37;;;;;;;;;;5005712;28;20201;-76
2022/02/26 12:29:23;;;;;;;5.77;1.80;;;;;;;;;;5003466;28;20229;-76
2022/02/26 12:31:56;;;;;;;6.07;1.83;;;;;;;;;;4997947;28;20303;-76
2022/02/26 12:34:25;;;;;;;5.13;1.83;;;;;;;;;;5010398;28;20712;-76
2022/02/26 12:36:54;;;;;;;5.20;1.90;;;;;;;;;;4995814;28;20229;-76
2022/02/26 12:39:28;;;;;;;4.40;1.70;;;;;;;;;;5006800;28;20201;-76
2022/02/26 12:41:55;;;;;;;4.10;1.80;;;;;;;;;;5013333;28;20201;-76
2022/02/26 12:44:22;;;;;;;6.07;2.03;;;;;;;;;;5014073;28;20288;-76
2022/02/26 12:46:50;;;;;;;5.33;1.93;;;;;;;;;;5015096;28;20657;-76
2022/02/26 12:49:17;;;;;;;6.03;1.97;;;;;;;;;;5012609;28;20200;-76
2022/02/26 12:51:46;;;;;;;4.30;1.50;;;;;;;;;;5009829;28;20280;-76
2022/02/26 12:54:13;;;;;;;4.07;1.73;;;;;;;;;;4999813;28;20414;-76
2022/02/26 12:56:43;;;;;;;5.90;1.97;;;;;;;;;;5003393;28;20244;-76
2022/02/26 12:59:14;;;;;;;3.63;1.93;;;;;;;;;;5013398;28;20705;-77
2022/02/26 13:01:41;;;;;;;4.00;1.73;;;;;;;;;;5014665;28;20228;-76
2022/02/26 13:04:14;;;;;;;4.67;1.60;;;;;;;;;;5014922;28;20280;-76
2022/02/26 13:06:46;;;;;;;5.67;2.27;;;;;;;;;;5014617;28;20205;-76
2022/02/26 13:09:15;;;;;;;6.63;2.10;;;;;;;;;;5015158;28;20291;-76
2022/02/26 13:11:45;;;;;;;3.47;1.83;;;;;;;;;;5015116;28;20662;-77
2022/02/26 13:14:12;;;;;;;5.07;1.87;;;;;;;;;;5014367;28;20257;-76
2022/02/26 13:16:41;;;;;;;6.27;2.10;;;;;;;;;;5014230;28;20233;-76
2022/02/26 13:19:08;;;;;;;4.37;1.67;;;;;;;;;;5014021;28;20598;-76
2022/02/26 13:21:36;;;;;;;6.70;2.10;;;;;;;;;;5014523;28;20228;-76
2022/02/26 13:24:03;;;;;;;4.77;1.50;;;;;;;;;;5014306;28;20236;-76
2022/02/26 13:26:34;;;;;;;4.17;1.70;;;;;;;;;;5014068;28;20232;-76
2022/02/26 13:29:01;;;;;;;4.23;1.40;;;;;;;;;;5013589;28;20205;-76
2022/02/26 13:31:35;;;;;;;3.83;1.30;;;;;;;;;;5014025;28;20217;-76
2022/02/26 13:34:15;;;;;;;2.97;1.50;;;;;;;;;;5014126;28;20233;-76
2022/02/26 13:36:42;;;;;;;4.17;1.50;;;;;;;;;;5014230;28;20208;-76
2022/02/26 13:39:10;;;;;;;4.17;1.50;;;;;;;;;;5013634;28;20643;-76
2022/02/26 13:41:39;;;;;;;4.03;1.57;;;;;;;;;;4995174;28;20293;-76
2022/02/26 13:44:08;;;;;;;5.13;1.33;;;;;;;;;;4994104;28;20212;-76
2022/02/26 13:46:39;;;;;;;5.13;1.40;;;;;;;;;;4994726;28;20202;-76
2022/02/26 13:49:06;;;;;;;3.73;1.40;;;;;;;;;;5004479;28;20748;-76
2022/02/26 13:51:34;;;;;;;3.13;1.20;;;;;;;;;;4994147;28;20252;-76
2022/02/26 13:54:01;;;;;;;3.97;1.67;;;;;;;;;;4996942;28;20201;-76
2022/02/26 13:56:28;;;;;;;5.03;1.37;;;;;;;;;;5013928;28;20239;-76
2022/02/26 13:58:57;;;;;;;3.73;1.50;;;;;;;;;;5004719;28;20292;-76
2022/02/26 14:01:24;;;;;;;4.67;2.00;;;;;;;;;;4994810;28;20686;-77
2022/02/26 14:03:52;;;;;;;5.70;1.70;;;;;;;;;;4994453;28;20253;-76
2022/02/26 14:06:30;;;;;;;3.77;1.53;;;;;;;;;;5004933;28;20280;-76
2022/02/26 14:08:58;;;;;;;4.90;1.40;;;;;;;;;;4993486;28;20252;-76
2022/02/26 14:11:29;;;;;;;3.17;1.30;;;;;;;;;;5006575;28;20324;-76
2022/02/26 14:13:57;;;;;;;4.00;1.37;;;;;;;;;;5013446;28;20284;-77
2022/02/26 14:16:25;;;;;;;4.00;1.40;;;;;;;;;;5013236;28;20224;-76
2022/02/26 14:18:52;;;;;;;3.50;1.73;;;;;;;;;;5010205;28;20234;-77
2022/02/26 14:21:21;;;;;;;3.67;1.37;;;;;;;;;;4994015;28;20244;-77
2022/02/26 14:23:49;;;;;;;4.17;1.80;;;;;;;;;;4993690;28;20198;-76
2022/02/26 14:26:17;;;;;;;2.63;1.33;;;;;;;;;;4992933;28;20202;-76
2022/02/26 14:28:44;;;;;;;3.87;1.50;;;;;;;;;;5009863;28;20208;-76
2022/02/26 14:31:13;;;;;;;4.33;1.87;;;;;;;;;;5000177;28;20201;-76
2022/02/26 14:33:41;;;;;;;4.13;1.67;;;;;;;;;;4993903;28;20226;-76
2022/02/26 14:36:09;;;;;;;4.03;1.30;;;;;;;;;;4993130;28;20709;-76
2022/02/26 14:38:36;;;;;;;3.63;1.70;;;;;;;;;;4993742;28;20209;-76
2022/02/26 14:41:05;;;;;;;3.40;1.60;;;;;;;;;;4992636;28;20621;-76
2022/02/26 14:43:33;;;;;;;3.77;1.33;;;;;;;;;;4993438;28;20681;-76